Terminal Aerodrome Forecast
Issued by NWS Northern Indiana

Home | Current Version | Previous Version | Graphics & Text | Print | Product List | Glossary On
Versions: 1 2 3 4 5 6 7 8 9 10 11 12 13 14 15 16
000
FTUS43 KIWX 311100
TAFFWA
TAF
KFWA 311138Z 3112/0112 24005KT P6SM BKN015
     FM311600 24007KT P6SM BKN025
     FM312100 23006KT P6SM BKN035
     FM010700 20005KT 5SM BR BKN015=

USA.gov is the U.S. government's official web portal to all federal, state and local government web resources and services.